sensor_id;sensor_type;location;lat;lon;timestamp;temperature;humidity
69901;DHT22;57183;50.930;5.406;2022-09-01T00:02:01;20.00;90.40
69901;DHT22;57183;50.930;5.406;2022-09-01T00:04:35;19.90;90.40
69901;DHT22;57183;50.930;5.406;2022-09-01T00:07:07;19.80;90.40
69901;DHT22;57183;50.930;5.406;2022-09-01T00:09:33;19.60;90.70
69901;DHT22;57183;50.930;5.406;2022-09-01T00:12:01;19.60;91.00
69901;DHT22;57183;50.930;5.406;2022-09-01T00:14:30;19.40;91.10
69901;DHT22;57183;50.930;5.406;2022-09-01T00:17:01;19.40;91.20
69901;DHT22;57183;50.930;5.406;2022-09-01T00:19:27;19.30;91.60
69901;DHT22;57183;50.930;5.406;2022-09-01T00:21:54;19.20;91.90
69901;DHT22;57183;50.930;5.406;2022-09-01T00:24:21;19.10;92.10
69901;DHT22;57183;50.930;5.406;2022-09-01T00:26:47;19.00;92.20
69901;DHT22;57183;50.930;5.406;2022-09-01T00:29:13;18.90;92.30
69901;DHT22;57183;50.930;5.406;2022-09-01T00:31:39;18.80;92.70
69901;DHT22;57183;50.930;5.406;2022-09-01T00:34:05;18.70;92.90
69901;DHT22;57183;50.930;5.406;2022-09-01T00:36:31;18.80;92.50
69901;DHT22;57183;50.930;5.406;2022-09-01T00:38:57;18.70;92.70
69901;DHT22;57183;50.930;5.406;2022-09-01T00:41:25;18.70;92.90
69901;DHT22;57183;50.930;5.406;2022-09-01T00:43:57;18.80;93.00
69901;DHT22;57183;50.930;5.406;2022-09-01T00:46:33;18.80;92.50
69901;DHT22;57183;50.930;5.406;2022-09-01T00:49:00;18.70;92.80
69901;DHT22;57183;50.930;5.406;2022-09-01T00:51:27;18.60;92.70
69901;DHT22;57183;50.930;5.406;2022-09-01T00:53:54;18.50;93.20
69901;DHT22;57183;50.930;5.406;2022-09-01T00:56:22;18.40;93.20
69901;DHT22;57183;50.930;5.406;2022-09-01T00:58:49;18.40;92.90
69901;DHT22;57183;50.930;5.406;2022-09-01T01:01:15;18.50;92.80
69901;DHT22;57183;50.930;5.406;2022-09-01T01:03:40;18.40;93.30
69901;DHT22;57183;50.930;5.406;2022-09-01T01:06:09;18.30;93.10
69901;DHT22;57183;50.930;5.406;2022-09-01T01:08:40;18.30;93.50
69901;DHT22;57183;50.930;5.406;2022-09-01T01:11:11;18.40;93.50
69901;DHT22;57183;50.930;5.406;2022-09-01T01:14:15;18.40;93.50
69901;DHT22;57183;50.930;5.406;2022-09-01T01:16:45;18.30;93.50
69901;DHT22;57183;50.930;5.406;2022-09-01T01:19:20;18.20;93.70
69901;DHT22;57183;50.930;5.406;2022-09-01T01:22:08;18.10;94.00
69901;DHT22;57183;50.930;5.406;2022-09-01T01:24:53;18.10;94.10
69901;DHT22;57183;50.930;5.406;2022-09-01T01:27:20;18.10;94.00
69901;DHT22;57183;50.930;5.406;2022-09-01T01:29:46;18.30;93.80
69901;DHT22;57183;50.930;5.406;2022-09-01T01:32:13;18.40;93.80
69901;DHT22;57183;50.930;5.406;2022-09-01T01:34:39;18.30;93.40
69901;DHT22;57183;50.930;5.406;2022-09-01T01:37:07;18.10;93.60
69901;DHT22;57183;50.930;5.406;2022-09-01T01:39:36;18.00;94.10
69901;DHT22;57183;50.930;5.406;2022-09-01T01:42:06;18.00;94.80
69901;DHT22;57183;50.930;5.406;2022-09-01T01:44:34;17.90;94.60
69901;DHT22;57183;50.930;5.406;2022-09-01T01:47:07;17.70;94.70
69901;DHT22;57183;50.930;5.406;2022-09-01T01:49:37;17.60;95.20
69901;DHT22;57183;50.930;5.406;2022-09-01T01:52:10;17.70;95.30
69901;DHT22;57183;50.930;5.406;2022-09-01T01:54:37;17.60;95.30
69901;DHT22;57183;50.930;5.406;2022-09-01T01:57:03;17.70;95.50
69901;DHT22;57183;50.930;5.406;2022-09-01T01:59:29;17.60;95.50
69901;DHT22;57183;50.930;5.406;2022-09-01T02:01:55;17.60;95.60
69901;DHT22;57183;50.930;5.406;2022-09-01T02:04:22;17.50;95.90
69901;DHT22;57183;50.930;5.406;2022-09-01T02:06:48;17.70;95.50
69901;DHT22;57183;50.930;5.406;2022-09-01T02:09:19;17.90;95.30
69901;DHT22;57183;50.930;5.406;2022-09-01T02:11:45;18.10;95.40
69901;DHT22;57183;50.930;5.406;2022-09-01T02:14:11;18.10;94.80
69901;DHT22;57183;50.930;5.406;2022-09-01T02:16:38;18.00;94.80
69901;DHT22;57183;50.930;5.406;2022-09-01T02:19:06;17.80;95.00
69901;DHT22;57183;50.930;5.406;2022-09-01T02:21:33;17.60;95.30
69901;DHT22;57183;50.930;5.406;2022-09-01T02:24:02;17.50;95.50
69901;DHT22;57183;50.930;5.406;2022-09-01T02:29:01;17.30;96.00
69901;DHT22;57183;50.930;5.406;2022-09-01T02:31:33;17.20;96.20
69901;DHT22;57183;50.930;5.406;2022-09-01T02:34:07;17.20;96.40
69901;DHT22;57183;50.930;5.406;2022-09-01T02:36:40;17.00;96.70
69901;DHT22;57183;50.930;5.406;2022-09-01T02:39:09;17.00;97.00
69901;DHT22;57183;50.930;5.406;2022-09-01T02:41:35;16.90;97.50
69901;DHT22;57183;50.930;5.406;2022-09-01T02:44:02;16.80;97.20
69901;DHT22;57183;50.930;5.406;2022-09-01T02:46:29;16.70;97.10
69901;DHT22;57183;50.930;5.406;2022-09-01T02:48:55;16.70;97.60
69901;DHT22;57183;50.930;5.406;2022-09-01T02:51:23;16.60;97.80
69901;DHT22;57183;50.930;5.406;2022-09-01T02:53:52;16.50;98.10
69901;DHT22;57183;50.930;5.406;2022-09-01T02:56:23;16.50;98.10
69901;DHT22;57183;50.930;5.406;2022-09-01T02:58:49;16.40;98.50
69901;DHT22;57183;50.930;5.406;2022-09-01T03:01:20;16.30;99.00
69901;DHT22;57183;50.930;5.406;2022-09-01T03:03:48;16.30;99.30
69901;DHT22;57183;50.930;5.406;2022-09-01T03:06:14;16.30;99.40
69901;DHT22;57183;50.930;5.406;2022-09-01T03:08:42;16.30;99.70
69901;DHT22;57183;50.930;5.406;2022-09-01T03:11:08;16.30;99.90
69901;DHT22;57183;50.930;5.406;2022-09-01T03:13:37;16.20;99.90
69901;DHT22;57183;50.930;5.406;2022-09-01T03:16:07;16.20;99.90
69901;DHT22;57183;50.930;5.406;2022-09-01T03:18:34;16.20;99.90
69901;DHT22;57183;50.930;5.406;2022-09-01T03:21:00;16.20;99.90
69901;DHT22;57183;50.930;5.406;2022-09-01T03:23:28;16.10;99.90
69901;DHT22;57183;50.930;5.406;2022-09-01T03:25:54;16.10;99.90
69901;DHT22;57183;50.930;5.406;2022-09-01T03:28:20;16.20;99.90
69901;DHT22;57183;50.930;5.406;2022-09-01T03:30:48;16.10;99.90
69901;DHT22;57183;50.930;5.406;2022-09-01T03:33:16;16.00;99.90
69901;DHT22;57183;50.930;5.406;2022-09-01T03:35:43;15.90;99.90
69901;DHT22;57183;50.930;5.406;2022-09-01T03:38:09;15.80;99.90
69901;DHT22;57183;50.930;5.406;2022-09-01T03:40:37;15.80;99.90
69901;DHT22;57183;50.930;5.406;2022-09-01T03:43:05;15.70;99.90
69901;DHT22;57183;50.930;5.406;2022-09-01T03:45:31;15.70;99.90
69901;DHT22;57183;50.930;5.406;2022-09-01T03:48:04;15.60;99.90
69901;DHT22;57183;50.930;5.406;2022-09-01T03:50:38;15.60;99.90
69901;DHT22;57183;50.930;5.406;2022-09-01T03:53:10;15.50;99.90
69901;DHT22;57183;50.930;5.406;2022-09-01T03:55:36;15.50;99.90
69901;DHT22;57183;50.930;5.406;2022-09-01T03:58:07;15.50;99.90
69901;DHT22;57183;50.930;5.406;2022-09-01T04:00:38;15.50;99.90
69901;DHT22;57183;50.930;5.406;2022-09-01T04:03:07;15.40;99.90
69901;DHT22;57183;50.930;5.406;2022-09-01T04:05:35;15.50;99.90
69901;DHT22;57183;50.930;5.406;2022-09-01T04:08:04;15.40;99.90
69901;DHT22;57183;50.930;5.406;2022-09-01T04:10:35;15.50;99.90
69901;DHT22;57183;50.930;5.406;2022-09-01T04:13:02;15.50;99.90
69901;DHT22;57183;50.930;5.406;2022-09-01T04:15:30;15.40;99.90
69901;DHT22;57183;50.930;5.406;2022-09-01T04:17:57;15.40;99.90
69901;DHT22;57183;50.930;5.406;2022-09-01T04:20:52;15.40;99.90
69901;DHT22;57183;50.930;5.406;2022-09-01T04:23:27;15.40;99.90
69901;DHT22;57183;50.930;5.406;2022-09-01T04:26:00;15.40;99.90
69901;DHT22;57183;50.930;5.406;2022-09-01T04:28:35;15.40;99.90
69901;DHT22;57183;50.930;5.406;2022-09-01T04:31:04;15.40;99.90
69901;DHT22;57183;50.930;5.406;2022-09-01T04:33:37;15.30;99.90
69901;DHT22;57183;50.930;5.406;2022-09-01T04:38:58;15.30;99.90
69901;DHT22;57183;50.930;5.406;2022-09-01T04:41:30;15.20;99.90
69901;DHT22;57183;50.930;5.406;2022-09-01T04:43:57;15.20;99.90
69901;DHT22;57183;50.930;5.406;2022-09-01T04:46:26;15.20;99.90
69901;DHT22;57183;50.930;5.406;2022-09-01T04:48:56;15.20;99.90
69901;DHT22;57183;50.930;5.406;2022-09-01T04:51:22;15.20;99.90
69901;DHT22;57183;50.930;5.406;2022-09-01T04:53:53;15.20;99.90
69901;DHT22;57183;50.930;5.406;2022-09-01T04:56:20;15.20;99.90
69901;DHT22;57183;50.930;5.406;2022-09-01T04:58:48;15.10;99.90
69901;DHT22;57183;50.930;5.406;2022-09-01T05:01:18;15.10;99.90
69901;DHT22;57183;50.930;5.406;2022-09-01T05:03:44;15.00;99.90
69901;DHT22;57183;50.930;5.406;2022-09-01T05:06:18;15.00;99.90
69901;DHT22;57183;50.930;5.406;2022-09-01T05:08:44;15.00;99.90
69901;DHT22;57183;50.930;5.406;2022-09-01T05:11:11;15.10;99.90
69901;DHT22;57183;50.930;5.406;2022-09-01T05:13:41;15.10;99.90
69901;DHT22;57183;50.930;5.406;2022-09-01T05:16:11;15.00;99.90
69901;DHT22;57183;50.930;5.406;2022-09-01T05:18:41;15.00;99.90
69901;DHT22;57183;50.930;5.406;2022-09-01T05:21:09;15.00;99.90
69901;DHT22;57183;50.930;5.406;2022-09-01T05:23:36;14.90;99.90
69901;DHT22;57183;50.930;5.406;2022-09-01T05:26:03;14.90;99.90
69901;DHT22;57183;50.930;5.406;2022-09-01T05:28:36;14.90;99.90
69901;DHT22;57183;50.930;5.406;2022-09-01T05:31:02;15.00;99.90
69901;DHT22;57183;50.930;5.406;2022-09-01T05:33:29;15.00;99.90
69901;DHT22;57183;50.930;5.406;2022-09-01T05:35:57;15.10;99.90
69901;DHT22;57183;50.930;5.406;2022-09-01T05:38:26;15.10;99.90
69901;DHT22;57183;50.930;5.406;2022-09-01T05:41:00;15.10;99.90
69901;DHT22;57183;50.930;5.406;2022-09-01T05:43:31;15.10;99.90
69901;DHT22;57183;50.930;5.406;2022-09-01T05:45:58;15.10;99.90
69901;DHT22;57183;50.930;5.406;2022-09-01T05:48:25;15.10;99.90
69901;DHT22;57183;50.930;5.406;2022-09-01T05:50:56;15.20;99.90
69901;DHT22;57183;50.930;5.406;2022-09-01T05:53:23;15.30;99.90
69901;DHT22;57183;50.930;5.406;2022-09-01T05:55:51;15.40;99.90
69901;DHT22;57183;50.930;5.406;2022-09-01T05:58:23;15.40;99.90
69901;DHT22;57183;50.930;5.406;2022-09-01T06:00:51;15.50;99.90
69901;DHT22;57183;50.930;5.406;2022-09-01T06:03:19;15.60;99.90
69901;DHT22;57183;50.930;5.406;2022-09-01T06:05:47;15.80;99.90
69901;DHT22;57183;50.930;5.406;2022-09-01T06:08:18;16.00;99.90
69901;DHT22;57183;50.930;5.406;2022-09-01T06:10:44;16.20;99.90
69901;DHT22;57183;50.930;5.406;2022-09-01T06:13:11;16.60;99.90
69901;DHT22;57183;50.930;5.406;2022-09-01T06:15:40;16.80;99.90
69901;DHT22;57183;50.930;5.406;2022-09-01T06:18:08;17.20;99.90
69901;DHT22;57183;50.930;5.406;2022-09-01T06:20:38;17.50;99.90
69901;DHT22;57183;50.930;5.406;2022-09-01T06:23:09;17.80;99.90
69901;DHT22;57183;50.930;5.406;2022-09-01T06:25:37;18.00;99.90
69901;DHT22;57183;50.930;5.406;2022-09-01T06:28:04;18.20;99.90
69901;DHT22;57183;50.930;5.406;2022-09-01T06:30:30;18.40;99.90
69901;DHT22;57183;50.930;5.406;2022-09-01T06:33:01;18.60;99.90
69901;DHT22;57183;50.930;5.406;2022-09-01T06:35:30;18.80;99.90
69901;DHT22;57183;50.930;5.406;2022-09-01T06:37:57;19.00;99.90
69901;DHT22;57183;50.930;5.406;2022-09-01T06:40:23;19.00;99.90
69901;DHT22;57183;50.930;5.406;2022-09-01T06:42:51;19.10;99.90
69901;DHT22;57183;50.930;5.406;2022-09-01T06:45:20;19.30;99.90
69901;DHT22;57183;50.930;5.406;2022-09-01T06:47:47;19.40;99.90
69901;DHT22;57183;50.930;5.406;2022-09-01T06:50:17;19.50;99.90
69901;DHT22;57183;50.930;5.406;2022-09-01T06:52:45;19.70;99.60
69901;DHT22;57183;50.930;5.406;2022-09-01T06:55:12;19.80;99.20
69901;DHT22;57183;50.930;5.406;2022-09-01T06:57:39;19.80;99.00
69901;DHT22;57183;50.930;5.406;2022-09-01T07:00:09;19.90;98.80
69901;DHT22;57183;50.930;5.406;2022-09-01T07:02:46;20.10;98.50
69901;DHT22;57183;50.930;5.406;2022-09-01T07:05:15;20.20;98.20
69901;DHT22;57183;50.930;5.406;2022-09-01T07:07:50;20.30;97.70
69901;DHT22;57183;50.930;5.406;2022-09-01T07:10:17;20.30;97.10
69901;DHT22;57183;50.930;5.406;2022-09-01T07:12:47;20.40;97.30
69901;DHT22;57183;50.930;5.406;2022-09-01T07:15:14;20.40;96.90
69901;DHT22;57183;50.930;5.406;2022-09-01T07:17:47;20.50;97.00
69901;DHT22;57183;50.930;5.406;2022-09-01T07:20:14;20.70;96.40
69901;DHT22;57183;50.930;5.406;2022-09-01T07:22:41;20.70;96.20
69901;DHT22;57183;50.930;5.406;2022-09-01T07:25:07;20.90;96.20
69901;DHT22;57183;50.930;5.406;2022-09-01T07:27:37;20.90;95.60
69901;DHT22;57183;50.930;5.406;2022-09-01T07:30:04;20.90;96.00
69901;DHT22;57183;50.930;5.406;2022-09-01T07:32:37;21.00;95.80
69901;DHT22;57183;50.930;5.406;2022-09-01T07:35:05;21.20;95.00
69901;DHT22;57183;50.930;5.406;2022-09-01T07:37:34;21.30;94.80
69901;DHT22;57183;50.930;5.406;2022-09-01T07:40:07;21.30;94.70
69901;DHT22;57183;50.930;5.406;2022-09-01T07:42:34;21.30;94.30
69901;DHT22;57183;50.930;5.406;2022-09-01T07:45:01;21.40;94.50
69901;DHT22;57183;50.930;5.406;2022-09-01T07:47:31;21.60;94.20
69901;DHT22;57183;50.930;5.406;2022-09-01T07:50:04;21.70;93.70
69901;DHT22;57183;50.930;5.406;2022-09-01T07:52:38;21.70;93.90
69901;DHT22;57183;50.930;5.406;2022-09-01T07:55:13;21.70;93.50
69901;DHT22;57183;50.930;5.406;2022-09-01T07:57:41;21.80;93.20
69901;DHT22;57183;50.930;5.406;2022-09-01T08:00:12;21.90;93.00
69901;DHT22;57183;50.930;5.406;2022-09-01T08:02:40;21.80;93.00
69901;DHT22;57183;50.930;5.406;2022-09-01T08:05:10;22.00;92.90
69901;DHT22;57183;50.930;5.406;2022-09-01T08:08:56;22.20;92.20
69901;DHT22;57183;50.930;5.406;2022-09-01T08:11:48;22.10;92.00
69901;DHT22;57183;50.930;5.406;2022-09-01T08:14:14;22.00;92.60
69901;DHT22;57183;50.930;5.406;2022-09-01T08:16:40;22.20;92.40
69901;DHT22;57183;50.930;5.406;2022-09-01T08:19:06;22.30;92.60
69901;DHT22;57183;50.930;5.406;2022-09-01T08:21:31;22.30;92.30
69901;DHT22;57183;50.930;5.406;2022-09-01T08:23:57;22.40;92.00
69901;DHT22;57183;50.930;5.406;2022-09-01T08:26:25;22.50;92.10
69901;DHT22;57183;50.930;5.406;2022-09-01T08:28:51;22.60;92.00
69901;DHT22;57183;50.930;5.406;2022-09-01T08:31:18;22.60;91.80
69901;DHT22;57183;50.930;5.406;2022-09-01T08:33:46;22.70;91.80
69901;DHT22;57183;50.930;5.406;2022-09-01T08:36:13;22.90;91.80
69901;DHT22;57183;50.930;5.406;2022-09-01T08:38:40;23.00;91.40
69901;DHT22;57183;50.930;5.406;2022-09-01T08:41:40;22.90;91.10
69901;DHT22;57183;50.930;5.406;2022-09-01T08:46:43;22.70;90.90
69901;DHT22;57183;50.930;5.406;2022-09-01T08:49:21;22.80;91.30
69901;DHT22;57183;50.930;5.406;2022-09-01T08:54:55;23.00;90.80
69901;DHT22;57183;50.930;5.406;2022-09-01T08:57:43;23.20;90.50
69901;DHT22;57183;50.930;5.406;2022-09-01T09:00:12;23.30;90.30
69901;DHT22;57183;50.930;5.406;2022-09-01T09:16:05;23.80;87.80
69901;DHT22;57183;50.930;5.406;2022-09-01T09:18:50;23.90;86.90
69901;DHT22;57183;50.930;5.406;2022-09-01T09:24:05;24.00;84.50
69901;DHT22;57183;50.930;5.406;2022-09-01T09:26:33;24.10;85.00
69901;DHT22;57183;50.930;5.406;2022-09-01T09:28:58;24.10;83.90
69901;DHT22;57183;50.930;5.406;2022-09-01T09:31:33;23.80;85.40
69901;DHT22;57183;50.930;5.406;2022-09-01T09:34:00;23.80;84.80
69901;DHT22;57183;50.930;5.406;2022-09-01T09:36:34;23.80;84.50
69901;DHT22;57183;50.930;5.406;2022-09-01T09:41:30;24.00;84.30
69901;DHT22;57183;50.930;5.406;2022-09-01T09:44:14;24.10;83.70
69901;DHT22;57183;50.930;5.406;2022-09-01T09:46:42;24.10;82.80
69901;DHT22;57183;50.930;5.406;2022-09-01T09:49:21;24.30;82.70
69901;DHT22;57183;50.930;5.406;2022-09-01T09:51:55;24.30;82.30
69901;DHT22;57183;50.930;5.406;2022-09-01T09:54:32;24.40;81.60
69901;DHT22;57183;50.930;5.406;2022-09-01T09:59:53;24.50;80.70
69901;DHT22;57183;50.930;5.406;2022-09-01T10:02:33;24.40;80.90
69901;DHT22;57183;50.930;5.406;2022-09-01T10:05:34;24.40;81.10
69901;DHT22;57183;50.930;5.406;2022-09-01T10:08:00;24.50;80.80
69901;DHT22;57183;50.930;5.406;2022-09-01T10:10:49;24.50;81.30
69901;DHT22;57183;50.930;5.406;2022-09-01T10:13:23;24.60;79.80
69901;DHT22;57183;50.930;5.406;2022-09-01T10:16:00;24.60;80.60
69901;DHT22;57183;50.930;5.406;2022-09-01T10:18:39;24.70;80.10
69901;DHT22;57183;50.930;5.406;2022-09-01T10:21:20;24.70;79.70
69901;DHT22;57183;50.930;5.406;2022-09-01T10:23:48;24.50;79.30
69901;DHT22;57183;50.930;5.406;2022-09-01T10:26:14;24.50;78.60
69901;DHT22;57183;50.930;5.406;2022-09-01T10:28:53;24.70;77.50
69901;DHT22;57183;50.930;5.406;2022-09-01T10:31:21;24.70;77.50
69901;DHT22;57183;50.930;5.406;2022-09-01T10:33:47;24.70;75.90
69901;DHT22;57183;50.930;5.406;2022-09-01T10:36:15;24.90;76.20
69901;DHT22;57183;50.930;5.406;2022-09-01T10:38:41;25.00;74.50
69901;DHT22;57183;50.930;5.406;2022-09-01T10:41:07;25.10;75.40
69901;DHT22;57183;50.930;5.406;2022-09-01T10:43:44;25.10;74.50
69901;DHT22;57183;50.930;5.406;2022-09-01T10:48:53;25.40;74.10
69901;DHT22;57183;50.930;5.406;2022-09-01T10:53:45;25.40;70.00
69901;DHT22;57183;50.930;5.406;2022-09-01T10:59:08;25.60;68.80
69901;DHT22;57183;50.930;5.406;2022-09-01T11:04:14;25.10;70.10
69901;DHT22;57183;50.930;5.406;2022-09-01T11:09:39;25.10;68.80
69901;DHT22;57183;50.930;5.406;2022-09-01T11:20:03;25.30;66.10
69901;DHT22;57183;50.930;5.406;2022-09-01T11:22:37;25.40;65.40
69901;DHT22;57183;50.930;5.406;2022-09-01T11:31:15;25.50;64.60
69901;DHT22;57183;50.930;5.406;2022-09-01T11:36:34;25.30;63.50
69901;DHT22;57183;50.930;5.406;2022-09-01T11:41:54;25.30;64.10
69901;DHT22;57183;50.930;5.406;2022-09-01T11:47:01;25.50;63.30
69901;DHT22;57183;50.930;5.406;2022-09-01T11:49:33;25.60;62.80
69901;DHT22;57183;50.930;5.406;2022-09-01T11:52:00;25.40;65.00
69901;DHT22;57183;50.930;5.406;2022-09-01T11:54:38;25.40;63.70
69901;DHT22;57183;50.930;5.406;2022-09-01T11:59:46;25.60;64.10
69901;DHT22;57183;50.930;5.406;2022-09-01T12:02:27;25.90;63.50
69901;DHT22;57183;50.930;5.406;2022-09-01T12:04:54;25.60;64.00
69901;DHT22;57183;50.930;5.406;2022-09-01T12:10:00;25.50;63.30
69901;DHT22;57183;50.930;5.406;2022-09-01T12:15:03;25.60;63.50
69901;DHT22;57183;50.930;5.406;2022-09-01T12:17:30;25.60;63.50
69901;DHT22;57183;50.930;5.406;2022-09-01T12:19:55;25.60;63.30
69901;DHT22;57183;50.930;5.406;2022-09-01T12:22:22;25.60;64.50
69901;DHT22;57183;50.930;5.406;2022-09-01T12:24:52;25.60;64.50
69901;DHT22;57183;50.930;5.406;2022-09-01T12:27:20;25.80;64.90
69901;DHT22;57183;50.930;5.406;2022-09-01T12:29:47;25.90;63.20
69901;DHT22;57183;50.930;5.406;2022-09-01T12:32:15;26.20;63.10
69901;DHT22;57183;50.930;5.406;2022-09-01T12:34:43;26.40;61.50
69901;DHT22;57183;50.930;5.406;2022-09-01T12:37:19;26.30;61.50
69901;DHT22;57183;50.930;5.406;2022-09-01T12:39:48;26.30;61.20
69901;DHT22;57183;50.930;5.406;2022-09-01T12:42:29;26.20;61.10
69901;DHT22;57183;50.930;5.406;2022-09-01T12:45:06;26.20;60.40
69901;DHT22;57183;50.930;5.406;2022-09-01T12:49:59;26.20;59.70
69901;DHT22;57183;50.930;5.406;2022-09-01T12:52:27;26.20;60.00
69901;DHT22;57183;50.930;5.406;2022-09-01T12:57:39;26.30;60.80
69901;DHT22;57183;50.930;5.406;2022-09-01T13:02:39;26.50;60.40
69901;DHT22;57183;50.930;5.406;2022-09-01T13:07:59;26.40;60.70
69901;DHT22;57183;50.930;5.406;2022-09-01T13:10:27;26.50;60.70
69901;DHT22;57183;50.930;5.406;2022-09-01T13:12:55;26.60;60.30
69901;DHT22;57183;50.930;5.406;2022-09-01T13:15:22;26.60;60.50
69901;DHT22;57183;50.930;5.406;2022-09-01T13:17:50;26.70;60.70
69901;DHT22;57183;50.930;5.406;2022-09-01T13:20:16;26.80;59.60
69901;DHT22;57183;50.930;5.406;2022-09-01T13:22:42;26.80;59.80
69901;DHT22;57183;50.930;5.406;2022-09-01T13:25:14;26.70;59.00
69901;DHT22;57183;50.930;5.406;2022-09-01T13:27:40;26.60;59.70
69901;DHT22;57183;50.930;5.406;2022-09-01T13:30:20;26.50;59.20
69901;DHT22;57183;50.930;5.406;2022-09-01T13:32:48;26.30;59.40
69901;DHT22;57183;50.930;5.406;2022-09-01T13:35:17;26.20;59.20
69901;DHT22;57183;50.930;5.406;2022-09-01T13:37:44;26.30;59.90
69901;DHT22;57183;50.930;5.406;2022-09-01T13:40:10;26.30;59.50
69901;DHT22;57183;50.930;5.406;2022-09-01T13:42:44;26.30;60.00
69901;DHT22;57183;50.930;5.406;2022-09-01T13:45:11;26.50;59.50
69901;DHT22;57183;50.930;5.406;2022-09-01T13:47:40;26.70;58.60
69901;DHT22;57183;50.930;5.406;2022-09-01T13:50:07;26.70;57.50
69901;DHT22;57183;50.930;5.406;2022-09-01T13:52:33;26.80;58.40
69901;DHT22;57183;50.930;5.406;2022-09-01T13:54:59;27.00;57.90
69901;DHT22;57183;50.930;5.406;2022-09-01T13:57:26;27.10;57.10
69901;DHT22;57183;50.930;5.406;2022-09-01T13:59:52;27.00;57.00
69901;DHT22;57183;50.930;5.406;2022-09-01T14:02:18;27.00;58.60
69901;DHT22;57183;50.930;5.406;2022-09-01T14:04:44;27.00;57.80
69901;DHT22;57183;50.930;5.406;2022-09-01T14:07:09;26.90;58.80
69901;DHT22;57183;50.930;5.406;2022-09-01T14:09:35;26.90;58.50
69901;DHT22;57183;50.930;5.406;2022-09-01T14:12:01;26.90;57.60
69901;DHT22;57183;50.930;5.406;2022-09-01T14:14:26;27.00;57.70
69901;DHT22;57183;50.930;5.406;2022-09-01T14:16:52;27.30;57.40
69901;DHT22;57183;50.930;5.406;2022-09-01T14:19:18;27.40;56.80
69901;DHT22;57183;50.930;5.406;2022-09-01T14:21:44;27.30;57.40
69901;DHT22;57183;50.930;5.406;2022-09-01T14:24:11;27.20;58.00
69901;DHT22;57183;50.930;5.406;2022-09-01T14:26:38;27.40;57.50
69901;DHT22;57183;50.930;5.406;2022-09-01T14:29:04;29.30;55.20
69901;DHT22;57183;50.930;5.406;2022-09-01T14:31:30;31.30;52.70
69901;DHT22;57183;50.930;5.406;2022-09-01T14:33:56;32.10;51.40
69901;DHT22;57183;50.930;5.406;2022-09-01T14:36:24;33.90;49.20
69901;DHT22;57183;50.930;5.406;2022-09-01T14:38:53;34.10;47.60
69901;DHT22;57183;50.930;5.406;2022-09-01T14:41:21;33.60;46.80
69901;DHT22;57183;50.930;5.406;2022-09-01T14:43:52;33.10;46.80
69901;DHT22;57183;50.930;5.406;2022-09-01T14:46:19;33.40;47.20
69901;DHT22;57183;50.930;5.406;2022-09-01T14:48:46;34.20;46.20
69901;DHT22;57183;50.930;5.406;2022-09-01T14:51:25;35.70;44.70
69901;DHT22;57183;50.930;5.406;2022-09-01T14:53:52;35.90;43.90
69901;DHT22;57183;50.930;5.406;2022-09-01T14:56:18;35.70;43.60
69901;DHT22;57183;50.930;5.406;2022-09-01T14:58:45;36.30;43.60
69901;DHT22;57183;50.930;5.406;2022-09-01T15:01:16;36.40;42.40
69901;DHT22;57183;50.930;5.406;2022-09-01T15:03:42;35.90;43.00
69901;DHT22;57183;50.930;5.406;2022-09-01T15:06:11;35.20;43.10
69901;DHT22;57183;50.930;5.406;2022-09-01T15:08:38;34.90;44.00
69901;DHT22;57183;50.930;5.406;2022-09-01T15:11:11;36.00;43.80
69901;DHT22;57183;50.930;5.406;2022-09-01T15:13:38;35.80;42.70
69901;DHT22;57183;50.930;5.406;2022-09-01T15:16:05;36.00;42.00
69901;DHT22;57183;50.930;5.406;2022-09-01T15:18:36;36.10;42.40
69901;DHT22;57183;50.930;5.406;2022-09-01T15:21:03;36.20;41.80
69901;DHT22;57183;50.930;5.406;2022-09-01T15:23:29;36.20;42.00
69901;DHT22;57183;50.930;5.406;2022-09-01T15:25:56;36.20;40.80
69901;DHT22;57183;50.930;5.406;2022-09-01T15:28:24;36.80;41.40
69901;DHT22;57183;50.930;5.406;2022-09-01T15:30:53;36.20;42.30
69901;DHT22;57183;50.930;5.406;2022-09-01T15:33:21;36.60;42.10
69901;DHT22;57183;50.930;5.406;2022-09-01T15:35:47;36.70;41.30
69901;DHT22;57183;50.930;5.406;2022-09-01T15:38:14;36.10;41.60
69901;DHT22;57183;50.930;5.406;2022-09-01T15:40:41;35.00;43.30
69901;DHT22;57183;50.930;5.406;2022-09-01T15:43:07;35.50;43.10
69901;DHT22;57183;50.930;5.406;2022-09-01T15:45:33;35.50;42.90
69901;DHT22;57183;50.930;5.406;2022-09-01T15:47:59;35.60;42.60
69901;DHT22;57183;50.930;5.406;2022-09-01T15:50:25;36.30;41.90
69901;DHT22;57183;50.930;5.406;2022-09-01T15:55:27;35.10;42.60
69901;DHT22;57183;50.930;5.406;2022-09-01T15:57:53;34.90;42.70
69901;DHT22;57183;50.930;5.406;2022-09-01T16:00:20;33.70;44.50
69901;DHT22;57183;50.930;5.406;2022-09-01T16:02:46;33.00;45.60
69901;DHT22;57183;50.930;5.406;2022-09-01T16:05:12;32.80;45.90
69901;DHT22;57183;50.930;5.406;2022-09-01T16:07:39;32.10;46.20
69901;DHT22;57183;50.930;5.406;2022-09-01T16:10:06;31.70;46.50
69901;DHT22;57183;50.930;5.406;2022-09-01T16:12:41;31.50;47.50
69901;DHT22;57183;50.930;5.406;2022-09-01T16:15:11;31.40;47.50
69901;DHT22;57183;50.930;5.406;2022-09-01T16:20:09;31.30;47.60
69901;DHT22;57183;50.930;5.406;2022-09-01T16:22:56;32.00;47.00
69901;DHT22;57183;50.930;5.406;2022-09-01T16:25:31;32.40;46.60
69901;DHT22;57183;50.930;5.406;2022-09-01T16:28:01;33.50;45.20
69901;DHT22;57183;50.930;5.406;2022-09-01T16:30:28;34.40;44.20
69901;DHT22;57183;50.930;5.406;2022-09-01T16:32:57;35.00;43.70
69901;DHT22;57183;50.930;5.406;2022-09-01T16:35:35;34.80;43.30
69901;DHT22;57183;50.930;5.406;2022-09-01T16:38:19;34.70;43.40
69901;DHT22;57183;50.930;5.406;2022-09-01T16:41:05;34.50;43.50
69901;DHT22;57183;50.930;5.406;2022-09-01T16:46:32;34.30;44.00
69901;DHT22;57183;50.930;5.406;2022-09-01T16:49:13;34.00;44.10
69901;DHT22;57183;50.930;5.406;2022-09-01T16:51:53;33.50;44.70
69901;DHT22;57183;50.930;5.406;2022-09-01T16:59:59;32.20;46.50
69901;DHT22;57183;50.930;5.406;2022-09-01T17:05:18;31.70;47.40
69901;DHT22;57183;50.930;5.406;2022-09-01T17:07:58;31.20;47.90
69901;DHT22;57183;50.930;5.406;2022-09-01T17:10:41;31.10;48.90
69901;DHT22;57183;50.930;5.406;2022-09-01T17:24:58;29.70;50.50
69901;DHT22;57183;50.930;5.406;2022-09-01T17:26:55;29.60;50.40
69901;DHT22;57183;50.930;5.406;2022-09-01T17:29:38;29.60;50.40
69901;DHT22;57183;50.930;5.406;2022-09-01T17:32:19;29.40;51.20
69901;DHT22;57183;50.930;5.406;2022-09-01T17:40:11;28.70;52.00
69901;DHT22;57183;50.930;5.406;2022-09-01T17:42:49;28.30;52.80
69901;DHT22;57183;50.930;5.406;2022-09-01T17:48:06;27.40;54.50
69901;DHT22;57183;50.930;5.406;2022-09-01T17:56:28;26.80;55.30